Time;durP1;ratioP1;P1;durP2;ratioP2;P2;SDS_P1;SDS_P2;PMS_P1;PMS_P2;Temp;Humidity;BMP_temperature;BMP_pressure;BME280_temperature;BME280_humidity;BME280_pressure;Samples;Min_cycle;Max_cycle;Signal;HPM_P1;HPM_P2
2022/09/14 00:01:12;;;;;;;0.82;0.82;;;22.30;99.90;;;;;;5070915;28;20229;-64
2022/09/14 00:03:39;;;;;;;0.90;0.90;;;22.20;99.90;;;;;;5064909;28;20196;-64
2022/09/14 00:06:10;;;;;;;0.82;0.82;;;22.30;99.90;;;;;;5065518;28;20578;-62
2022/09/14 00:08:37;;;;;;;1.10;1.05;;;22.30;99.90;;;;;;5065639;28;20204;-63
2022/09/14 00:11:05;;;;;;;0.90;0.90;;;22.30;99.90;;;;;;5065485;28;20243;-62
2022/09/14 00:13:33;;;;;;;0.80;0.80;;;22.20;99.90;;;;;;5067858;28;20218;-62
2022/09/14 00:16:03;;;;;;;1.00;1.00;;;22.20;99.90;;;;;;5054181;28;20204;-62
2022/09/14 00:18:31;;;;;;;0.98;0.98;;;22.30;99.90;;;;;;5054015;28;20682;-62
2022/09/14 00:21:00;;;;;;;1.85;0.98;;;22.30;99.90;;;;;;5051742;28;20223;-62
2022/09/14 00:23:28;;;;;;;0.90;0.90;;;22.10;99.90;;;;;;5045307;28;20204;-62
2022/09/14 00:25:55;;;;;;;0.80;0.80;;;22.10;99.90;;;;;;5051908;28;20208;-62
2022/09/14 00:28:22;;;;;;;1.23;1.10;;;22.00;99.90;;;;;;5046493;28;20204;-62
2022/09/14 00:30:49;;;;;;;1.17;1.00;;;21.90;99.90;;;;;;5055978;28;20223;-62
2022/09/14 00:33:15;;;;;;;0.90;0.90;;;21.90;99.90;;;;;;5079581;22;20704;-66
2022/09/14 00:35:42;;;;;;;1.40;1.25;;;22.00;99.90;;;;;;5080795;28;20670;-66
2022/09/14 00:38:09;;;;;;;1.10;1.10;;;21.90;99.90;;;;;;5075331;28;20199;-65
2022/09/14 00:40:37;;;;;;;1.00;1.00;;;21.80;99.90;;;;;;5078014;28;20210;-66
2022/09/14 00:43:12;;;;;;;0.85;0.85;;;21.80;99.90;;;;;;5085862;28;20253;-66
2022/09/14 00:45:39;;;;;;;0.80;0.80;;;21.80;99.90;;;;;;5078597;28;20203;-64
2022/09/14 00:48:06;;;;;;;0.80;0.80;;;21.80;99.90;;;;;;5072064;28;20209;-68
2022/09/14 00:50:33;;;;;;;1.05;1.00;;;21.70;99.90;;;;;;5078361;28;20203;-66
2022/09/14 00:53:00;;;;;;;1.30;1.20;;;21.70;99.90;;;;;;5101319;28;20688;-65
2022/09/14 00:55:27;;;;;;;1.00;1.00;;;21.70;99.90;;;;;;5099659;28;20298;-66
2022/09/14 00:57:56;;;;;;;1.23;1.23;;;21.60;99.90;;;;;;5088011;28;20208;-66
2022/09/14 01:00:26;;;;;;;1.20;1.20;;;21.50;99.90;;;;;;5095369;28;20203;-66
2022/09/14 01:02:53;;;;;;;1.23;1.20;;;21.30;99.90;;;;;;5084648;28;20219;-65
2022/09/14 01:05:27;;;;;;;1.30;1.30;;;21.30;99.90;;;;;;5094362;28;20216;-65
2022/09/14 01:08:08;;;;;;;1.17;1.17;;;21.20;99.90;;;;;;5096883;28;20223;-67
2022/09/14 01:10:46;;;;;;;1.25;1.15;;;21.20;99.90;;;;;;5111966;28;20676;-67
2022/09/14 01:13:26;;;;;;;1.10;1.10;;;21.10;99.90;;;;;;5095257;28;20290;-67
2022/09/14 01:16:00;;;;;;;1.10;1.10;;;21.10;99.90;;;;;;5091799;28;20224;-66
2022/09/14 01:18:29;;;;;;;1.70;1.20;;;21.10;99.90;;;;;;5093480;28;20195;-67
2022/09/14 01:21:00;;;;;;;1.30;1.20;;;21.10;99.90;;;;;;5092656;28;20230;-64
2022/09/14 01:23:34;;;;;;;1.05;1.05;;;21.00;99.90;;;;;;5090544;28;20717;-67
2022/09/14 01:26:39;;;;;;;1.60;1.10;;;20.90;99.90;;;;;;5081499;28;20199;-68
2022/09/14 01:29:13;;;;;;;1.43;1.10;;;20.80;99.90;;;;;;5076872;28;20206;-65
2022/09/14 01:31:48;;;;;;;1.00;1.00;;;20.70;99.90;;;;;;5081876;28;20633;-65
2022/09/14 01:34:22;;;;;;;1.00;1.00;;;20.70;99.90;;;;;;5086738;28;20225;-66
2022/09/14 01:36:53;;;;;;;1.30;1.20;;;20.70;99.90;;;;;;5083159;28;20202;-67
2022/09/14 01:39:22;;;;;;;1.15;1.15;;;20.70;99.90;;;;;;5088718;28;20660;-67
2022/09/14 01:41:51;;;;;;;1.10;1.00;;;20.70;99.90;;;;;;5089730;28;20295;-67
2022/09/14 01:44:23;;;;;;;3.47;1.25;;;20.70;99.90;;;;;;5084776;28;20231;-68
2022/09/14 01:46:54;;;;;;;1.00;1.00;;;20.70;99.90;;;;;;5084673;28;20294;-66
2022/09/14 01:49:26;;;;;;;1.10;1.10;;;20.80;99.90;;;;;;5090084;28;20206;-66
2022/09/14 01:51:58;;;;;;;1.00;1.00;;;20.80;99.90;;;;;;5087239;28;20723;-68
2022/09/14 01:54:28;;;;;;;0.98;0.98;;;20.80;99.90;;;;;;5084763;28;20235;-66
2022/09/14 01:57:00;;;;;;;1.20;1.10;;;20.80;99.90;;;;;;5093698;28;20206;-65
2022/09/14 01:59:33;;;;;;;0.90;0.90;;;20.80;99.90;;;;;;5087013;28;20195;-66
2022/09/14 02:02:04;;;;;;;1.10;1.10;;;20.80;99.90;;;;;;5086465;28;20198;-66
2022/09/14 02:04:39;;;;;;;0.95;0.95;;;20.80;99.90;;;;;;5086842;28;20809;-66
2022/09/14 02:07:06;;;;;;;0.93;0.93;;;20.80;99.90;;;;;;5087478;28;20232;-66
2022/09/14 02:09:33;;;;;;;0.83;0.83;;;20.70;99.90;;;;;;5087927;28;20199;-68
2022/09/14 02:12:00;;;;;;;0.90;0.90;;;20.80;99.90;;;;;;5088346;28;20199;-66
2022/09/14 02:14:29;;;;;;;1.40;1.10;;;20.80;99.90;;;;;;5090779;28;20701;-68
2022/09/14 02:16:56;;;;;;;1.23;1.02;;;20.80;99.90;;;;;;5088835;28;20573;-66
2022/09/14 02:19:25;;;;;;;1.17;1.10;;;20.80;99.90;;;;;;5083615;28;20567;-67
2022/09/14 02:21:52;;;;;;;0.90;0.90;;;20.80;99.90;;;;;;5090620;28;20199;-65
2022/09/14 02:24:19;;;;;;;0.93;0.93;;;20.80;99.90;;;;;;5081979;28;20310;-66
2022/09/14 02:26:51;;;;;;;0.93;0.93;;;20.80;99.90;;;;;;5085390;28;20203;-65
2022/09/14 02:29:18;;;;;;;1.05;1.05;;;20.80;99.90;;;;;;5088597;28;20248;-66
2022/09/14 02:32:02;;;;;;;1.17;0.95;;;20.70;99.90;;;;;;5087419;28;20195;-67
2022/09/14 02:34:37;;;;;;;1.10;1.10;;;20.60;99.90;;;;;;5079634;28;20272;-65
2022/09/14 02:37:13;;;;;;;0.93;0.93;;;20.50;99.90;;;;;;5084222;28;20251;-66
2022/09/14 02:39:47;;;;;;;1.13;1.02;;;20.40;99.90;;;;;;5084288;28;20850;-66
2022/09/14 02:42:25;;;;;;;1.20;1.10;;;20.40;99.90;;;;;;5087734;28;20222;-66
2022/09/14 02:45:02;;;;;;;1.27;1.20;;;20.40;99.90;;;;;;5075621;28;20309;-67
2022/09/14 02:47:38;;;;;;;1.00;1.00;;;20.40;99.90;;;;;;5085419;28;21897;-66
2022/09/14 02:50:13;;;;;;;1.00;1.00;;;20.30;99.90;;;;;;5089657;28;20670;-66
2022/09/14 02:52:47;;;;;;;2.30;1.30;;;20.20;99.90;;;;;;5079519;28;20707;-66
2022/09/14 02:55:18;;;;;;;1.15;1.05;;;20.30;99.90;;;;;;5089420;28;20222;-67
2022/09/14 02:58:02;;;;;;;0.90;0.90;;;20.20;99.90;;;;;;5087521;28;20210;-67
2022/09/14 03:00:31;;;;;;;1.15;1.15;;;20.20;99.90;;;;;;5090969;28;20199;-67
2022/09/14 03:02:59;;;;;;;1.30;1.20;;;20.20;99.90;;;;;;5088442;28;20226;-67
2022/09/14 03:05:26;;;;;;;1.10;1.10;;;20.20;99.90;;;;;;5083965;28;20580;-66
2022/09/14 03:07:53;;;;;;;1.02;1.02;;;20.20;99.90;;;;;;5086533;28;20209;-66
2022/09/14 03:10:20;;;;;;;1.27;1.17;;;20.20;99.90;;;;;;5083229;28;20211;-66
2022/09/14 03:12:47;;;;;;;0.93;0.93;;;20.20;99.90;;;;;;5092257;28;20214;-66
2022/09/14 03:15:14;;;;;;;1.33;1.10;;;20.20;99.90;;;;;;5083815;28;20206;-66
2022/09/14 03:17:45;;;;;;;1.00;1.00;;;20.20;99.90;;;;;;5091342;28;20202;-67
2022/09/14 03:20:14;;;;;;;0.93;0.93;;;20.20;99.90;;;;;;5085588;28;20203;-67
2022/09/14 03:22:41;;;;;;;1.13;1.13;;;20.10;99.90;;;;;;5099505;28;20222;-66
2022/09/14 03:25:08;;;;;;;1.08;1.08;;;20.10;99.90;;;;;;5092380;28;20291;-66
2022/09/14 03:27:35;;;;;;;0.90;0.90;;;20.10;99.90;;;;;;5084394;28;20206;-66
2022/09/14 03:30:02;;;;;;;1.00;1.00;;;20.10;99.90;;;;;;5089255;28;20202;-66
2022/09/14 03:32:29;;;;;;;1.07;1.07;;;20.00;99.90;;;;;;5084749;28;20207;-66
2022/09/14 03:34:56;;;;;;;1.00;1.00;;;20.10;99.90;;;;;;5091741;28;20254;-67
2022/09/14 03:37:24;;;;;;;0.90;0.90;;;20.20;99.90;;;;;;5083797;28;20282;-66
2022/09/14 03:39:51;;;;;;;0.98;0.98;;;20.20;99.90;;;;;;5093109;28;20202;-67
2022/09/14 03:42:18;;;;;;;0.93;0.93;;;20.20;99.90;;;;;;5084830;28;20203;-67
2022/09/14 03:44:45;;;;;;;0.90;0.90;;;20.20;99.90;;;;;;5087639;28;20199;-65
2022/09/14 03:47:12;;;;;;;1.08;0.90;;;20.20;99.90;;;;;;5090873;28;20210;-67
2022/09/14 03:49:38;;;;;;;0.95;0.95;;;20.10;99.90;;;;;;5086161;28;20237;-67
2022/09/14 03:52:05;;;;;;;0.90;0.90;;;20.10;99.90;;;;;;5083702;28;20209;-68
2022/09/14 03:54:33;;;;;;;1.10;1.00;;;20.20;99.90;;;;;;5086795;28;21035;-66
2022/09/14 03:57:00;;;;;;;0.80;0.80;;;20.20;99.90;;;;;;5086327;28;20198;-65
2022/09/14 03:59:27;;;;;;;1.03;0.80;;;20.20;99.90;;;;;;5090299;28;20210;-66
2022/09/14 04:01:54;;;;;;;0.80;0.80;;;20.30;99.90;;;;;;5089674;28;20320;-66
2022/09/14 04:04:21;;;;;;;0.80;0.80;;;20.30;99.90;;;;;;5088607;28;20226;-66
2022/09/14 04:06:48;;;;;;;0.80;0.80;;;20.30;99.90;;;;;;5082578;28;20218;-67
2022/09/14 04:09:15;;;;;;;0.90;0.90;;;20.30;99.90;;;;;;5077593;28;20199;-65
2022/09/14 04:11:44;;;;;;;1.25;1.15;;;20.30;99.90;;;;;;5087337;28;20656;-66
2022/09/14 04:14:11;;;;;;;0.80;0.80;;;20.30;99.90;;;;;;5083938;28;20587;-65
2022/09/14 04:16:39;;;;;;;1.20;1.10;;;20.30;99.90;;;;;;5087808;28;20682;-68
2022/09/14 04:19:06;;;;;;;0.95;0.95;;;20.40;99.90;;;;;;5085333;28;20207;-66
2022/09/14 04:21:33;;;;;;;0.90;0.90;;;20.40;99.90;;;;;;5088595;28;20570;-67
2022/09/14 04:24:00;;;;;;;0.90;0.90;;;20.40;99.90;;;;;;5086755;28;20246;-66
2022/09/14 04:26:29;;;;;;;0.80;0.80;;;20.50;99.90;;;;;;5081232;28;20207;-68
2022/09/14 04:28:58;;;;;;;1.10;1.10;;;20.40;99.90;;;;;;5087158;28;20206;-66
2022/09/14 04:31:26;;;;;;;0.90;0.90;;;20.40;99.90;;;;;;5073743;28;20210;-67
2022/09/14 04:33:55;;;;;;;0.90;0.90;;;20.50;99.90;;;;;;5077437;28;20777;-67
2022/09/14 04:36:26;;;;;;;1.08;1.08;;;20.50;99.90;;;;;;5074617;28;20231;-67
2022/09/14 04:38:54;;;;;;;0.90;0.90;;;20.50;99.90;;;;;;5087499;28;20210;-67
2022/09/14 04:41:22;;;;;;;0.98;0.98;;;20.50;99.90;;;;;;5083288;28;20582;-65
2022/09/14 04:43:50;;;;;;;0.90;0.90;;;20.40;99.90;;;;;;5081018;28;20223;-66
2022/09/14 04:46:20;;;;;;;1.03;1.00;;;20.40;99.90;;;;;;5080864;28;20602;-65
2022/09/14 04:48:47;;;;;;;1.10;1.10;;;20.40;99.90;;;;;;5079024;28;20206;-67
2022/09/14 04:51:16;;;;;;;2.15;1.02;;;20.40;99.90;;;;;;5079838;28;20195;-66
2022/09/14 04:53:45;;;;;;;1.37;1.27;;;20.50;99.90;;;;;;5084835;28;20234;-65
2022/09/14 04:56:13;;;;;;;1.00;1.00;;;20.50;99.90;;;;;;5079481;28;20214;-67
2022/09/14 04:58:43;;;;;;;0.88;0.88;;;20.50;99.90;;;;;;5082067;28;20218;-67
2022/09/14 05:01:12;;;;;;;0.82;0.82;;;20.50;99.90;;;;;;5080601;28;20204;-67
2022/09/14 05:03:41;;;;;;;1.08;0.98;;;20.50;99.90;;;;;;5076721;28;20707;-66
2022/09/14 05:06:09;;;;;;;1.00;1.00;;;20.50;99.90;;;;;;5082584;28;20210;-68
2022/09/14 05:08:37;;;;;;;0.87;0.87;;;20.60;99.90;;;;;;5079794;28;20838;-69
2022/09/14 05:11:05;;;;;;;1.25;1.15;;;20.60;99.90;;;;;;5085578;28;20211;-66
2022/09/14 05:13:32;;;;;;;0.77;0.77;;;20.60;99.90;;;;;;5082787;28;20758;-67
2022/09/14 05:16:05;;;;;;;0.90;0.90;;;20.60;99.90;;;;;;5084242;28;20219;-66
2022/09/14 05:18:32;;;;;;;0.88;0.88;;;20.50;99.90;;;;;;5084774;28;20229;-66
2022/09/14 05:21:03;;;;;;;0.80;0.80;;;20.60;99.90;;;;;;5075809;28;20203;-66
2022/09/14 05:23:30;;;;;;;0.80;0.80;;;20.60;99.90;;;;;;5080052;28;20220;-68
2022/09/14 05:25:57;;;;;;;1.00;1.00;;;20.60;99.90;;;;;;5078242;28;20203;-68
2022/09/14 05:28:24;;;;;;;0.95;0.95;;;20.60;99.90;;;;;;5083163;28;20200;-66
2022/09/14 05:30:51;;;;;;;1.08;1.08;;;20.60;99.90;;;;;;5084595;28;20199;-67
2022/09/14 05:33:18;;;;;;;1.13;1.10;;;20.60;99.90;;;;;;5077533;28;20260;-67
2022/09/14 05:35:45;;;;;;;1.38;1.08;;;20.60;99.90;;;;;;5085325;28;20268;-66
2022/09/14 05:38:13;;;;;;;0.88;0.88;;;20.60;99.90;;;;;;5073900;28;20207;-68
2022/09/14 05:40:40;;;;;;;1.03;1.03;;;20.50;99.90;;;;;;5086715;28;20202;-68
2022/09/14 05:43:08;;;;;;;1.08;1.08;;;20.50;99.90;;;;;;5081810;28;20229;-67
2022/09/14 05:45:35;;;;;;;1.00;1.00;;;20.50;99.90;;;;;;5083414;28;20520;-67
2022/09/14 05:48:03;;;;;;;1.00;1.00;;;20.50;99.90;;;;;;5087977;28;20211;-65
2022/09/14 05:50:30;;;;;;;1.10;1.10;;;20.60;99.90;;;;;;5086014;28;20206;-66
2022/09/14 05:52:57;;;;;;;1.10;1.00;;;20.50;99.90;;;;;;5088820;28;20329;-66
2022/09/14 05:55:26;;;;;;;1.05;1.05;;;20.50;99.90;;;;;;5085720;28;20257;-67
2022/09/14 05:57:53;;;;;;;1.10;1.10;;;20.50;99.90;;;;;;5081908;28;20687;-66
2022/09/14 06:00:21;;;;;;;0.90;0.90;;;20.50;99.90;;;;;;5084982;28;20207;-67
2022/09/14 06:02:48;;;;;;;0.90;0.90;;;20.60;99.90;;;;;;5078066;28;20230;-66
2022/09/14 06:05:15;;;;;;;2.00;1.10;;;20.60;99.90;;;;;;5078417;28;20204;-65
2022/09/14 06:07:42;;;;;;;1.10;1.10;;;20.70;99.90;;;;;;5081397;28;20199;-67
2022/09/14 06:10:10;;;;;;;1.00;1.00;;;20.70;99.90;;;;;;5080823;28;20697;-67
2022/09/14 06:12:39;;;;;;;0.80;0.80;;;20.70;99.90;;;;;;5083245;28;20223;-67
2022/09/14 06:15:07;;;;;;;0.97;0.97;;;20.80;99.90;;;;;;5089412;28;20245;-67
2022/09/14 06:17:33;;;;;;;0.95;0.95;;;20.70;99.90;;;;;;5087586;28;20204;-67
2022/09/14 06:20:00;;;;;;;1.20;1.10;;;20.80;99.90;;;;;;5078645;28;20203;-66
2022/09/14 06:22:27;;;;;;;1.13;1.13;;;20.80;99.90;;;;;;5070804;28;20225;-65
2022/09/14 06:24:54;;;;;;;1.00;1.00;;;20.80;99.90;;;;;;5077165;28;20197;-66
2022/09/14 06:27:21;;;;;;;0.90;0.90;;;20.90;99.90;;;;;;5086050;28;20213;-66
2022/09/14 06:29:52;;;;;;;0.85;0.85;;;20.90;99.90;;;;;;5075863;28;20566;-66
2022/09/14 06:32:19;;;;;;;0.90;0.90;;;20.90;99.90;;;;;;5076686;28;20257;-66
2022/09/14 06:34:46;;;;;;;0.98;0.98;;;20.90;99.90;;;;;;5084638;28;20792;-65
2022/09/14 06:37:13;;;;;;;1.10;1.10;;;20.90;99.90;;;;;;5076700;28;20207;-65
2022/09/14 06:39:40;;;;;;;2.58;1.95;;;20.90;99.90;;;;;;5078725;28;20199;-65
2022/09/14 06:42:07;;;;;;;1.33;1.23;;;20.80;99.90;;;;;;5082428;28;20665;-64
2022/09/14 06:44:34;;;;;;;0.90;0.90;;;20.90;99.90;;;;;;5084404;28;20219;-67
2022/09/14 06:47:02;;;;;;;1.13;1.13;;;20.90;99.90;;;;;;5093472;28;20202;-67
2022/09/14 06:49:29;;;;;;;1.10;1.00;;;20.90;99.90;;;;;;5087865;28;20726;-67
2022/09/14 06:51:56;;;;;;;1.00;1.00;;;21.00;99.90;;;;;;5094931;28;20209;-67
2022/09/14 06:54:24;;;;;;;1.23;1.13;;;21.10;99.90;;;;;;5085425;28;20227;-67
2022/09/14 06:56:51;;;;;;;2.20;1.20;;;21.10;99.90;;;;;;5086069;28;20206;-66
2022/09/14 06:59:18;;;;;;;1.00;1.00;;;21.10;99.90;;;;;;5085982;28;20290;-65
2022/09/14 07:01:45;;;;;;;0.90;0.90;;;21.20;99.90;;;;;;5069864;28;20213;-65
2022/09/14 07:04:14;;;;;;;1.07;1.00;;;21.20;99.90;;;;;;5089713;28;20225;-67
2022/09/14 07:06:42;;;;;;;1.00;1.00;;;21.30;99.90;;;;;;5086894;28;20202;-68
2022/09/14 07:09:09;;;;;;;1.00;1.00;;;21.30;99.90;;;;;;5090854;28;20683;-68
2022/09/14 07:11:37;;;;;;;0.87;0.87;;;21.30;99.90;;;;;;5088895;28;20223;-67
2022/09/14 07:14:04;;;;;;;0.90;0.90;;;21.30;99.90;;;;;;5088882;28;20223;-66
2022/09/14 07:16:33;;;;;;;0.90;0.90;;;21.30;99.90;;;;;;5087245;28;20206;-66
2022/09/14 07:19:03;;;;;;;0.90;0.90;;;21.30;99.90;;;;;;5080381;28;20206;-66
2022/09/14 07:21:33;;;;;;;1.10;1.10;;;21.30;99.90;;;;;;5088195;28;20206;-67
2022/09/14 07:24:00;;;;;;;0.98;0.98;;;21.30;99.90;;;;;;5088456;28;20389;-68
2022/09/14 07:26:28;;;;;;;0.98;0.98;;;21.20;99.90;;;;;;5090094;28;20298;-65
2022/09/14 07:28:59;;;;;;;1.07;1.07;;;21.20;99.90;;;;;;5081246;28;20206;-68
2022/09/14 07:31:30;;;;;;;1.42;1.15;;;21.30;99.90;;;;;;5101516;28;20223;-66
2022/09/14 07:33:58;;;;;;;0.90;0.90;;;21.40;99.90;;;;;;5097941;28;20294;-65
2022/09/14 07:36:26;;;;;;;1.00;1.00;;;21.40;99.90;;;;;;5085247;28;20287;-68
2022/09/14 07:38:55;;;;;;;1.27;1.17;;;21.40;99.90;;;;;;5088955;28;20253;-67
2022/09/14 07:41:24;;;;;;;1.13;1.07;;;21.40;99.90;;;;;;5089886;28;20206;-67
2022/09/14 07:43:51;;;;;;;1.30;1.23;;;21.50;99.90;;;;;;5092397;28;20764;-65
2022/09/14 07:46:18;;;;;;;1.53;1.07;;;21.60;99.90;;;;;;5088601;28;20763;-65
2022/09/14 07:48:45;;;;;;;1.07;1.07;;;21.60;99.90;;;;;;5076923;28;20204;-65
2022/09/14 07:51:13;;;;;;;1.30;1.10;;;21.60;99.90;;;;;;5087490;28;20213;-67
2022/09/14 07:53:42;;;;;;;1.27;1.20;;;21.70;99.90;;;;;;5068995;28;20223;-66
2022/09/14 07:56:12;;;;;;;1.20;1.20;;;21.70;99.90;;;;;;5069648;28;20226;-66
2022/09/14 07:58:40;;;;;;;1.00;1.00;;;21.60;99.90;;;;;;5078752;28;20288;-66
2022/09/14 08:01:10;;;;;;;1.35;1.10;;;21.60;99.90;;;;;;5069407;28;20204;-68
2022/09/14 08:03:38;;;;;;;1.30;1.20;;;21.60;99.90;;;;;;5070985;28;20292;-65
2022/09/14 08:06:07;;;;;;;1.00;1.00;;;21.70;99.90;;;;;;5070407;28;20196;-67
2022/09/14 08:08:36;;;;;;;1.07;1.07;;;21.80;99.90;;;;;;5077097;28;20571;-67
2022/09/14 08:11:05;;;;;;;1.10;1.10;;;21.70;99.90;;;;;;5073351;28;20205;-65
2022/09/14 08:13:33;;;;;;;1.10;1.00;;;21.90;99.90;;;;;;5074763;28;20319;-68
2022/09/14 08:16:01;;;;;;;1.10;1.10;;;21.90;99.90;;;;;;5081199;28;20226;-68
2022/09/14 08:18:28;;;;;;;1.10;1.00;;;22.00;99.90;;;;;;5075887;28;20225;-67
2022/09/14 08:20:55;;;;;;;0.90;0.90;;;22.10;99.90;;;;;;5070688;28;20268;-64
2022/09/14 08:23:22;;;;;;;1.40;1.30;;;22.20;99.90;;;;;;5070690;28;20254;-67
2022/09/14 08:25:49;;;;;;;1.35;1.25;;;22.50;99.90;;;;;;5075626;28;20200;-64
2022/09/14 08:28:16;;;;;;;1.00;1.00;;;22.70;99.90;;;;;;5071432;28;20199;-66
2022/09/14 08:30:44;;;;;;;1.33;1.20;;;22.90;99.90;;;;;;5077870;28;20211;-66
2022/09/14 08:33:11;;;;;;;1.17;1.13;;;23.20;99.90;;;;;;5081140;28;20230;-66
2022/09/14 08:35:42;;;;;;;1.20;1.10;;;23.50;99.90;;;;;;5083683;28;20233;-65
2022/09/14 08:38:09;;;;;;;0.95;0.95;;;23.70;99.90;;;;;;5077240;28;20290;-67
2022/09/14 08:40:43;;;;;;;1.20;1.10;;;23.90;99.90;;;;;;5075771;28;20294;-69
2022/09/14 08:43:12;;;;;;;1.00;1.00;;;23.90;99.90;;;;;;5077046;28;20241;-65
2022/09/14 08:45:41;;;;;;;1.00;1.00;;;23.80;99.90;;;;;;5069469;28;20198;-67
2022/09/14 08:48:17;;;;;;;0.98;0.98;;;23.80;99.90;;;;;;5068988;28;20205;-67
2022/09/14 08:50:43;;;;;;;1.00;1.00;;;23.80;99.90;;;;;;5073711;28;20202;-66
2022/09/14 08:53:10;;;;;;;1.20;1.20;;;23.80;99.90;;;;;;5073350;28;20219;-66
2022/09/14 08:55:42;;;;;;;0.98;0.98;;;23.70;99.90;;;;;;5074496;28;20215;-65
2022/09/14 08:58:19;;;;;;;0.93;0.93;;;23.70;99.90;;;;;;5063974;28;20691;-66
2022/09/14 09:00:54;;;;;;;1.10;0.87;;;23.70;99.90;;;;;;5070546;28;20213;-68
2022/09/14 09:03:52;;;;;;;0.98;0.98;;;23.80;99.90;;;;;;5080743;28;20256;-65
2022/09/14 09:06:24;;;;;;;0.90;0.90;;;23.70;99.90;;;;;;5071039;28;20665;-68
2022/09/14 09:09:00;;;;;;;0.90;0.90;;;23.80;99.90;;;;;;5084664;28;20547;-65
2022/09/14 09:11:35;;;;;;;2.45;1.58;;;23.90;99.90;;;;;;5079116;28;20191;-65
2022/09/14 09:14:13;;;;;;;1.35;1.00;;;23.90;99.90;;;;;;5076832;28;20227;-67
2022/09/14 09:16:40;;;;;;;1.17;1.10;;;24.00;99.90;;;;;;5076045;28;20230;-65
2022/09/14 09:19:17;;;;;;;3.50;1.60;;;24.10;99.90;;;;;;5078511;28;20297;-65
2022/09/14 09:21:46;;;;;;;1.98;1.70;;;24.20;99.90;;;;;;5083561;28;20194;-66
2022/09/14 09:24:20;;;;;;;1.30;1.20;;;24.50;99.90;;;;;;5082092;28;20222;-66
2022/09/14 09:26:47;;;;;;;1.00;1.00;;;24.60;99.90;;;;;;5084525;28;20289;-65
2022/09/14 09:29:14;;;;;;;1.20;1.10;;;24.70;99.90;;;;;;5077708;28;20305;-68
2022/09/14 09:31:46;;;;;;;1.13;1.13;;;24.60;99.90;;;;;;5090681;28;20224;-66
2022/09/14 09:34:16;;;;;;;1.20;1.10;;;24.70;99.90;;;;;;5097329;28;20253;-67
2022/09/14 09:36:48;;;;;;;1.10;1.10;;;24.80;99.90;;;;;;5093648;28;20569;-70
2022/09/14 09:39:15;;;;;;;0.90;0.90;;;24.80;99.90;;;;;;5086554;28;20209;-65
2022/09/14 09:41:47;;;;;;;1.00;1.00;;;24.80;99.90;;;;;;5085320;28;20289;-65
2022/09/14 09:44:14;;;;;;;1.35;1.25;;;24.70;99.90;;;;;;5076886;28;20227;-67
2022/09/14 09:46:47;;;;;;;1.00;1.00;;;24.80;99.90;;;;;;5090276;28;20199;-66
2022/09/14 09:49:22;;;;;;;0.93;0.93;;;24.80;99.90;;;;;;5082436;28;20199;-66
2022/09/14 09:51:49;;;;;;;0.90;0.90;;;24.90;99.90;;;;;;5077221;28;20204;-66
2022/09/14 09:54:26;;;;;;;1.00;1.00;;;25.10;99.90;;;;;;5089891;28;20219;-67
2022/09/14 09:56:56;;;;;;;1.00;1.00;;;25.20;99.90;;;;;;5073815;28;20221;-68
2022/09/14 09:59:30;;;;;;;1.30;1.20;;;25.30;99.90;;;;;;5083938;28;20581;-65
2022/09/14 10:02:14;;;;;;;1.38;1.10;;;25.40;99.90;;;;;;5088083;28;20224;-68
2022/09/14 10:04:57;;;;;;;0.80;0.80;;;25.40;99.90;;;;;;5090271;28;20222;-66
2022/09/14 10:07:24;;;;;;;1.00;1.00;;;25.50;99.90;;;;;;5088335;28;20222;-68
2022/09/14 10:09:58;;;;;;;1.57;1.10;;;25.60;99.90;;;;;;5092712;28;20198;-67
2022/09/14 10:12:25;;;;;;;1.15;1.05;;;25.60;99.90;;;;;;5089278;28;20728;-67
2022/09/14 10:15:06;;;;;;;0.98;0.98;;;25.70;99.90;;;;;;5085770;28;20205;-67
2022/09/14 10:17:33;;;;;;;1.05;1.00;;;26.00;99.90;;;;;;5088959;28;20198;-68
2022/09/14 10:20:03;;;;;;;0.88;0.88;;;26.10;99.90;;;;;;5088079;28;20296;-67
2022/09/14 10:22:31;;;;;;;0.70;0.70;;;26.10;99.90;;;;;;5093015;28;20209;-65
2022/09/14 10:25:00;;;;;;;1.00;1.00;;;26.20;99.90;;;;;;5088530;28;20207;-66
2022/09/14 10:27:38;;;;;;;0.90;0.90;;;26.20;99.90;;;;;;5090974;28;20668;-66
2022/09/14 10:30:08;;;;;;;0.88;0.88;;;26.20;99.90;;;;;;5084062;28;20202;-66
2022/09/14 10:32:37;;;;;;;0.70;0.70;;;26.40;99.90;;;;;;5093441;28;20230;-67
2022/09/14 10:35:12;;;;;;;1.17;1.13;;;26.40;99.90;;;;;;5085649;28;20701;-66
2022/09/14 10:37:50;;;;;;;0.98;0.98;;;26.60;99.90;;;;;;5092327;28;20212;-67
2022/09/14 10:40:19;;;;;;;0.90;0.90;;;26.70;99.90;;;;;;5085176;28;20566;-66
2022/09/14 10:42:59;;;;;;;0.90;0.90;;;27.10;99.90;;;;;;5074025;28;20580;-67
2022/09/14 10:45:30;;;;;;;1.25;1.13;;;27.50;99.90;;;;;;5085552;28;20657;-66
2022/09/14 10:48:18;;;;;;;0.90;0.90;;;27.70;99.90;;;;;;5089972;28;20693;-66
2022/09/14 10:50:57;;;;;;;1.10;1.00;;;27.50;99.90;;;;;;5083288;28;20202;-66
2022/09/14 10:53:35;;;;;;;0.80;0.80;;;27.40;99.90;;;;;;5090102;28;20226;-67
2022/09/14 10:56:09;;;;;;;0.90;0.90;;;27.20;99.90;;;;;;5082230;28;20288;-67
2022/09/14 10:58:48;;;;;;;1.20;1.10;;;27.00;99.90;;;;;;5091770;28;20203;-67
2022/09/14 11:01:30;;;;;;;0.90;0.90;;;26.90;99.90;;;;;;5078532;28;20203;-67
2022/09/14 11:04:09;;;;;;;0.98;0.98;;;26.90;99.90;;;;;;5081416;28;20674;-66
2022/09/14 11:06:50;;;;;;;0.90;0.90;;;26.90;99.90;;;;;;5083378;28;20233;-66
2022/09/14 11:09:23;;;;;;;1.00;1.00;;;26.80;99.90;;;;;;5087700;28;20286;-68
2022/09/14 11:12:02;;;;;;;0.82;0.82;;;26.90;99.90;;;;;;5072741;28;20207;-66
2022/09/14 11:14:54;;;;;;;0.90;0.90;;;26.90;99.90;;;;;;5090916;28;20227;-67
2022/09/14 11:17:41;;;;;;;1.13;1.02;;;26.80;99.90;;;;;;5084847;28;20226;-63
2022/09/14 11:20:21;;;;;;;1.20;1.10;;;26.80;99.90;;;;;;5088885;28;20195;-66
2022/09/14 11:22:58;;;;;;;1.20;1.20;;;26.70;99.90;;;;;;5082940;28;20225;-66
2022/09/14 11:25:32;;;;;;;0.95;0.95;;;26.40;99.90;;;;;;5083571;28;20207;-66
2022/09/14 11:28:03;;;;;;;0.90;0.90;;;26.30;99.90;;;;;;5088469;28;20208;-67
2022/09/14 11:30:37;;;;;;;1.08;1.05;;;26.20;99.90;;;;;;5091756;28;20218;-66
2022/09/14 11:33:10;;;;;;;1.00;1.00;;;26.10;99.90;;;;;;5087176;28;20237;-66
2022/09/14 11:35:42;;;;;;;1.90;1.80;;;25.90;99.90;;;;;;5084223;28;20723;-65
2022/09/14 11:38:16;;;;;;;3.00;2.05;;;25.80;99.90;;;;;;5090685;28;20260;-65
2022/09/14 11:40:47;;;;;;;2.07;1.87;;;25.30;99.90;;;;;;5088436;28;20202;-65
2022/09/14 11:43:18;;;;;;;1.48;1.38;;;24.80;99.90;;;;;;5087521;28;20696;-65
2022/09/14 11:45:49;;;;;;;1.40;1.30;;;24.40;99.90;;;;;;5086139;28;20252;-65
2022/09/14 11:48:23;;;;;;;1.15;1.13;;;24.10;99.90;;;;;;5089473;28;20201;-65
2022/09/14 11:50:56;;;;;;;0.90;0.90;;;23.80;99.90;;;;;;5084839;28;20241;-65
2022/09/14 11:53:25;;;;;;;1.30;1.20;;;23.60;99.90;;;;;;5091258;28;20227;-68
2022/09/14 11:55:52;;;;;;;0.82;0.82;;;23.40;99.90;;;;;;5081094;28;20208;-63
2022/09/14 11:58:22;;;;;;;0.90;0.90;;;23.30;99.90;;;;;;5065499;28;20230;-66
2022/09/14 12:01:22;;;;;;;1.20;1.20;;;23.20;99.90;;;;;;5069221;28;20256;-66
2022/09/14 12:04:10;;;;;;;0.80;0.80;;;23.20;99.90;;;;;;5073842;28;20583;-65
2022/09/14 12:06:46;;;;;;;0.80;0.80;;;23.20;99.90;;;;;;5069587;28;20231;-65
2022/09/14 12:09:45;;;;;;;0.85;0.85;;;23.00;99.90;;;;;;5064655;28;20256;-66
2022/09/14 12:12:32;;;;;;;0.80;0.80;;;22.90;99.90;;;;;;5074789;28;20274;-65
2022/09/14 12:15:01;;;;;;;1.00;1.00;;;22.90;99.90;;;;;;5074174;28;20207;-62
2022/09/14 12:17:35;;;;;;;0.80;0.80;;;22.80;99.90;;;;;;5090950;28;20295;-66
2022/09/14 12:20:34;;;;;;;0.75;0.75;;;22.60;99.90;;;;;;5077812;28;20252;-66
2022/09/14 12:23:24;;;;;;;0.93;0.93;;;22.60;99.90;;;;;;5083999;28;20219;-65
2022/09/14 12:26:10;;;;;;;0.80;0.80;;;22.50;99.90;;;;;;5075559;28;20195;-67
2022/09/14 12:28:47;;;;;;;0.93;0.93;;;22.50;99.90;;;;;;5073202;28;20289;-65
2022/09/14 12:31:49;;;;;;;0.90;0.90;;;22.40;99.90;;;;;;5069459;28;20195;-66
2022/09/14 12:34:20;;;;;;;0.95;0.95;;;22.40;99.90;;;;;;5071958;28;20333;-65
2022/09/14 12:37:29;;;;;;;0.80;0.80;;;22.30;99.90;;;;;;5075874;28;20616;-65
2022/09/14 12:40:33;;;;;;;0.80;0.80;;;22.20;99.90;;;;;;5077090;28;20208;-65
2022/09/14 12:43:46;;;;;;;0.90;0.90;;;22.30;99.90;;;;;;5065535;28;20591;-66
2022/09/14 12:46:48;;;;;;;1.00;1.00;;;22.40;99.90;;;;;;5074373;28;20639;-67
2022/09/14 12:49:39;;;;;;;0.90;0.90;;;22.40;99.90;;;;;;4993202;28;20736;-66
2022/09/14 12:52:35;;;;;;;0.90;0.90;;;22.50;99.90;;;;;;4995803;28;20231;-66
2022/09/14 12:55:18;;;;;;;0.80;0.80;;;22.50;99.90;;;;;;4992815;28;20279;-67
2022/09/14 12:57:51;;;;;;;0.87;0.70;;;22.60;99.90;;;;;;4997209;28;20216;-66
2022/09/14 13:00:19;;;;;;;0.90;0.90;;;22.60;99.90;;;;;;4988166;28;20222;-66
2022/09/14 13:03:20;;;;;;;0.70;0.70;;;22.60;99.90;;;;;;4990662;28;20247;-66
2022/09/14 13:05:47;;;;;;;1.13;1.02;;;22.60;99.90;;;;;;4988999;28;20198;-67
2022/09/14 13:08:19;;;;;;;0.90;0.90;;;22.50;99.90;;;;;;4982687;28;20209;-67
2022/09/14 13:10:49;;;;;;;0.50;0.50;;;22.60;99.90;;;;;;4989722;28;20984;-66